createdAt,value
2024-03-26T00:01:28.706Z,1.20
2024-03-26T00:03:56.195Z,1.80
2024-03-26T00:06:23.654Z,2.00
2024-03-26T00:08:51.061Z,1.70
2024-03-26T00:11:18.576Z,2.20
2024-03-26T00:13:46.025Z,1.60
2024-03-26T00:16:13.640Z,1.50
2024-03-26T00:18:41.152Z,1.70
2024-03-26T00:21:08.656Z,2.00
2024-03-26T00:23:36.267Z,1.60
2024-03-26T00:26:03.700Z,1.20
2024-03-26T00:28:31.178Z,1.90
2024-03-26T00:30:58.636Z,1.60
2024-03-26T00:33:26.069Z,2.10
2024-03-26T00:35:53.656Z,1.30
2024-03-26T00:38:21.063Z,2.00
2024-03-26T00:40:48.475Z,0.80
2024-03-26T00:43:15.925Z,1.10
2024-03-26T00:45:43.381Z,1.30
2024-03-26T00:48:11.198Z,1.70
2024-03-26T00:50:38.682Z,0.90
2024-03-26T00:53:06.167Z,2.60
2024-03-26T00:55:33.672Z,1.30
2024-03-26T00:58:01.097Z,1.50
2024-03-26T01:00:28.481Z,1.30
2024-03-26T01:02:55.995Z,1.10
2024-03-26T01:05:23.660Z,1.50
2024-03-26T01:07:51.113Z,1.40
2024-03-26T01:10:18.580Z,3.00
2024-03-26T01:12:45.980Z,1.30
2024-03-26T01:15:13.499Z,1.30
2024-03-26T01:17:40.965Z,1.70
2024-03-26T01:20:08.842Z,1.60
2024-03-26T01:22:36.277Z,1.10
2024-03-26T01:25:04.154Z,1.50
2024-03-26T01:27:31.649Z,1.10
2024-03-26T01:29:59.263Z,1.80
2024-03-26T01:32:27.335Z,1.30
2024-03-26T01:34:54.890Z,1.50
2024-03-26T01:37:22.566Z,1.60
2024-03-26T01:39:49.905Z,1.30
2024-03-26T01:42:17.468Z,1.10
2024-03-26T01:44:45.652Z,1.50
2024-03-26T01:47:13.247Z,1.20
2024-03-26T01:49:40.762Z,1.30
2024-03-26T01:52:08.316Z,2.00
2024-03-26T01:54:35.777Z,1.40
2024-03-26T01:57:03.332Z,1.00
2024-03-26T01:59:30.898Z,1.30
2024-03-26T02:01:59.501Z,1.50
2024-03-26T02:04:26.945Z,3.00
2024-03-26T02:06:54.406Z,2.20
2024-03-26T02:09:22.160Z,1.30
2024-03-26T02:11:49.617Z,1.40
2024-03-26T02:14:18.203Z,1.30
2024-03-26T02:16:46.172Z,1.10
2024-03-26T02:19:14.548Z,1.10
2024-03-26T02:21:42.111Z,1.70
2024-03-26T02:24:09.773Z,1.50
2024-03-26T02:26:37.393Z,1.40
2024-03-26T02:29:04.790Z,0.80
2024-03-26T02:31:32.349Z,1.10
2024-03-26T02:33:59.807Z,2.90
2024-03-26T02:36:27.468Z,0.90
2024-03-26T02:38:54.924Z,1.20
2024-03-26T02:41:22.483Z,1.30
2024-03-26T02:43:49.942Z,1.20
2024-03-26T02:46:17.812Z,1.10
2024-03-26T02:48:45.267Z,1.20
2024-03-26T02:51:12.725Z,1.20
2024-03-26T02:53:40.389Z,1.30
2024-03-26T02:56:08.147Z,1.10
2024-03-26T02:58:35.484Z,1.10
2024-03-26T03:01:12.383Z,1.70
2024-03-26T03:03:39.950Z,2.00
2024-03-26T03:06:10.987Z,1.40
2024-03-26T03:08:38.872Z,1.60
2024-03-26T03:11:06.415Z,1.30
2024-03-26T03:13:33.971Z,1.30
2024-03-26T03:16:01.430Z,1.30
2024-03-26T03:18:28.789Z,1.50
2024-03-26T03:20:56.351Z,1.60
2024-03-26T03:23:23.805Z,1.30
2024-03-26T03:25:55.158Z,1.00
2024-03-26T03:28:22.825Z,1.40
2024-03-26T03:30:50.278Z,1.10
2024-03-26T03:33:17.731Z,1.70
2024-03-26T03:35:45.187Z,2.30
2024-03-26T03:38:12.593Z,1.00
2024-03-26T03:40:40.001Z,1.20
2024-03-26T03:43:07.455Z,1.20
2024-03-26T03:47:43.064Z,1.30
2024-03-26T03:50:10.584Z,1.00
2024-03-26T03:52:37.938Z,0.80
2024-03-26T03:55:05.890Z,1.00
2024-03-26T03:57:33.257Z,0.80
2024-03-26T04:00:01.974Z,1.20
2024-03-26T04:02:39.281Z,1.00
2024-03-26T04:05:07.304Z,1.30
2024-03-26T04:07:35.581Z,1.10
2024-03-26T04:10:04.311Z,1.60
2024-03-26T04:12:32.043Z,1.40
2024-03-26T04:14:59.565Z,0.90
2024-03-26T04:17:27.275Z,1.10
2024-03-26T04:20:03.220Z,0.80
2024-03-26T04:22:33.405Z,0.90
2024-03-26T04:25:01.505Z,0.80
2024-03-26T04:27:28.873Z,1.10
2024-03-26T04:29:56.423Z,1.30
2024-03-26T04:32:23.925Z,1.00
2024-03-26T04:34:51.436Z,1.90
2024-03-26T04:37:19.414Z,1.00
2024-03-26T04:39:47.477Z,1.10
2024-03-26T04:42:14.937Z,1.30
2024-03-26T04:44:42.339Z,1.20
2024-03-26T04:47:09.952Z,1.10
2024-03-26T04:49:37.363Z,1.00
2024-03-26T04:52:04.873Z,1.10
2024-03-26T04:54:32.280Z,1.10
2024-03-26T04:56:59.804Z,1.20
2024-03-26T04:59:27.291Z,1.50
2024-03-26T05:01:54.801Z,1.20
2024-03-26T05:04:22.871Z,1.10
2024-03-26T05:06:50.533Z,1.20
2024-03-26T05:09:17.991Z,1.50
2024-03-26T05:11:45.452Z,0.90
2024-03-26T05:14:13.053Z,2.90
2024-03-26T05:16:40.466Z,0.80
2024-03-26T05:19:07.927Z,0.80
2024-03-26T05:21:35.401Z,1.30
2024-03-26T05:24:14.209Z,0.90
2024-03-26T05:26:49.002Z,0.80
2024-03-26T05:29:22.606Z,1.10
2024-03-26T05:31:53.514Z,0.80
2024-03-26T05:34:25.664Z,0.90
2024-03-26T05:36:54.121Z,2.60
2024-03-26T05:39:22.745Z,0.70
2024-03-26T05:41:51.947Z,0.80
2024-03-26T05:44:19.320Z,1.10
2024-03-26T05:46:46.761Z,1.10
2024-03-26T05:49:15.242Z,0.70
2024-03-26T05:51:43.316Z,0.90
2024-03-26T05:54:10.746Z,2.40
2024-03-26T05:56:38.878Z,1.50
2024-03-26T05:59:06.479Z,1.00
2024-03-26T06:01:34.121Z,0.90
2024-03-26T06:04:02.786Z,0.70
2024-03-26T06:06:30.443Z,0.50
2024-03-26T06:08:57.844Z,0.80
2024-03-26T06:11:25.492Z,1.50
2024-03-26T06:13:52.945Z,0.50
2024-03-26T06:16:20.712Z,1.40
2024-03-26T06:18:48.173Z,0.80
2024-03-26T06:21:15.730Z,2.20
2024-03-26T06:23:43.903Z,0.60
2024-03-26T06:26:11.574Z,1.00
2024-03-26T06:28:39.122Z,1.10
2024-03-26T06:31:06.533Z,1.10
2024-03-26T06:33:34.042Z,0.90
2024-03-26T06:36:01.556Z,2.10
2024-03-26T06:38:29.209Z,1.40
2024-03-26T06:40:58.516Z,1.00
2024-03-26T06:43:25.966Z,1.10
2024-03-26T06:45:54.194Z,1.20
2024-03-26T06:48:21.654Z,1.30
2024-03-26T06:50:49.277Z,0.80
2024-03-26T06:53:16.714Z,1.20
2024-03-26T06:55:44.337Z,0.80
2024-03-26T06:58:11.744Z,1.20
2024-03-26T07:00:39.165Z,1.00
2024-03-26T07:03:07.577Z,2.40
2024-03-26T07:05:35.147Z,1.20
2024-03-26T07:08:03.873Z,0.80
2024-03-26T07:10:31.436Z,0.90
2024-03-26T07:12:59.099Z,1.20
2024-03-26T07:15:26.633Z,1.40
2024-03-26T07:17:58.597Z,2.70
2024-03-26T07:20:28.941Z,1.40
2024-03-26T07:23:00.578Z,1.40
2024-03-26T07:25:28.333Z,0.80
2024-03-26T07:27:58.297Z,1.30
2024-03-26T07:30:25.954Z,2.30
2024-03-26T07:32:53.358Z,1.10
2024-03-26T07:35:21.477Z,1.10
2024-03-26T07:37:50.201Z,1.40
2024-03-26T07:40:17.554Z,2.20
2024-03-26T07:42:45.274Z,0.70
2024-03-26T07:45:15.737Z,1.10
2024-03-26T07:47:43.452Z,2.00
2024-03-26T07:50:11.643Z,0.80
2024-03-26T07:52:39.204Z,0.90
2024-03-26T07:55:07.007Z,2.10
2024-03-26T07:57:34.908Z,1.30
2024-03-26T08:00:02.730Z,1.30
2024-03-26T08:02:38.983Z,0.70
2024-03-26T08:05:08.730Z,1.00
2024-03-26T08:07:38.608Z,2.60
2024-03-26T08:10:07.392Z,0.90
2024-03-26T08:12:35.467Z,1.80
2024-03-26T08:15:03.285Z,0.70
2024-03-26T08:17:31.921Z,0.70
2024-03-26T08:19:59.599Z,1.50
2024-03-26T08:22:27.332Z,0.50
2024-03-26T08:24:55.376Z,1.90
2024-03-26T08:27:22.908Z,0.80
2024-03-26T08:29:52.291Z,0.80
2024-03-26T08:32:19.964Z,1.80
2024-03-26T08:34:47.543Z,0.80
2024-03-26T08:37:15.251Z,1.60
2024-03-26T08:39:43.661Z,0.50
2024-03-26T08:42:12.629Z,1.50
2024-03-26T08:44:40.130Z,0.60
2024-03-26T08:47:07.947Z,1.10
2024-03-26T08:49:35.506Z,1.00
2024-03-26T08:52:03.273Z,1.60
2024-03-26T08:54:30.731Z,0.50
2024-03-26T08:56:58.350Z,1.30
2024-03-26T08:59:26.822Z,0.60
2024-03-26T09:01:54.330Z,1.00
2024-03-26T09:04:23.960Z,0.50
2024-03-26T09:06:52.939Z,1.00
2024-03-26T09:09:20.452Z,1.10
2024-03-26T09:11:50.923Z,0.70
2024-03-26T09:14:18.636Z,0.20
2024-03-26T09:16:46.493Z,1.00
2024-03-26T09:19:14.485Z,0.50
2024-03-26T09:21:43.971Z,1.00
2024-03-26T09:24:12.225Z,0.70
2024-03-26T09:26:39.967Z,0.80
2024-03-26T09:29:07.476Z,0.40
2024-03-26T09:31:35.188Z,1.10
2024-03-26T09:34:02.757Z,1.10
2024-03-26T09:36:30.309Z,0.50
2024-03-26T09:39:06.557Z,0.80
2024-03-26T09:41:37.479Z,0.70
2024-03-26T09:44:05.172Z,0.70
2024-03-26T09:46:37.440Z,0.70
2024-03-26T09:49:05.825Z,0.40
2024-03-26T09:51:33.995Z,1.20
2024-03-26T09:54:01.699Z,0.20
2024-03-26T09:56:29.425Z,0.80
2024-03-26T09:58:56.989Z,1.20
2024-03-26T10:01:26.137Z,0.40
2024-03-26T10:03:54.156Z,1.10
2024-03-26T10:06:21.864Z,1.00
2024-03-26T10:08:49.395Z,0.70
2024-03-26T10:11:16.760Z,1.40
2024-03-26T10:13:44.175Z,1.50
2024-03-26T10:16:11.832Z,1.40
2024-03-26T10:18:39.356Z,1.50
2024-03-26T10:21:07.888Z,1.40
2024-03-26T10:23:35.968Z,0.80
2024-03-26T10:26:03.619Z,1.50
2024-03-26T10:28:31.181Z,1.70
2024-03-26T10:30:58.853Z,1.10
2024-03-26T10:33:26.711Z,1.40
2024-03-26T10:35:55.911Z,1.50
2024-03-26T10:38:24.994Z,1.30
2024-03-26T10:41:11.200Z,1.10
2024-03-26T10:43:39.784Z,0.70
2024-03-26T10:46:08.424Z,1.30
2024-03-26T10:48:39.717Z,1.60
2024-03-26T10:53:42.251Z,1.30
2024-03-26T10:56:10.317Z,1.40
2024-03-26T10:58:37.822Z,1.40
2024-03-26T11:01:06.332Z,1.20
2024-03-26T11:03:33.837Z,1.50
2024-03-26T11:06:05.477Z,1.40
2024-03-26T11:08:42.740Z,1.40
2024-03-26T11:11:14.299Z,1.30
2024-03-26T11:13:42.071Z,1.30
2024-03-26T11:16:11.007Z,0.90
2024-03-26T11:18:40.141Z,1.40
2024-03-26T11:21:09.653Z,1.40
2024-03-26T11:23:38.392Z,1.10
2024-03-26T11:26:06.092Z,1.10
2024-03-26T11:28:33.859Z,1.30
2024-03-26T11:31:02.650Z,1.00
2024-03-26T11:33:33.523Z,1.00
2024-03-26T11:36:03.124Z,1.40
2024-03-26T11:38:30.650Z,1.00
2024-03-26T11:40:58.819Z,0.60
2024-03-26T11:43:26.389Z,1.80
2024-03-26T11:45:59.442Z,1.80
2024-03-26T11:48:27.823Z,2.40
2024-03-26T11:50:57.218Z,5.60
2024-03-26T11:53:25.127Z,3.60
2024-03-26T11:55:55.262Z,2.40
2024-03-26T11:58:27.617Z,3.60
2024-03-26T12:00:57.909Z,1.60
2024-03-26T12:03:25.459Z,1.80
2024-03-26T12:05:53.272Z,2.50
2024-03-26T12:08:21.080Z,2.10
2024-03-26T12:10:48.700Z,1.90
2024-03-26T12:13:16.766Z,1.70
2024-03-26T12:15:44.345Z,1.70
2024-03-26T12:18:11.988Z,1.30
2024-03-26T12:20:39.398Z,1.50
2024-03-26T12:23:07.106Z,1.50
2024-03-26T12:25:34.722Z,1.30
2024-03-26T12:28:03.951Z,1.20
2024-03-26T12:30:35.379Z,1.10
2024-03-26T12:33:03.034Z,1.30
2024-03-26T12:35:31.406Z,1.30
2024-03-26T12:37:58.926Z,1.50
2024-03-26T12:40:26.594Z,1.40
2024-03-26T12:42:54.141Z,1.20
2024-03-26T12:45:21.766Z,1.20
2024-03-26T12:47:49.883Z,1.90
2024-03-26T12:50:17.435Z,1.20
2024-03-26T12:52:44.999Z,1.20
2024-03-26T12:55:14.347Z,1.00
2024-03-26T12:57:43.439Z,1.20
2024-03-26T13:00:11.669Z,1.60
2024-03-26T13:02:42.667Z,1.50
2024-03-26T13:05:12.027Z,1.20
2024-03-26T13:07:42.651Z,0.90
2024-03-26T13:10:13.140Z,1.20
2024-03-26T13:12:42.895Z,1.10
2024-03-26T13:15:13.681Z,1.00
2024-03-26T13:17:49.713Z,1.50
2024-03-26T13:20:17.887Z,1.00
2024-03-26T13:22:48.361Z,1.20
2024-03-26T13:25:18.599Z,1.20
2024-03-26T13:27:46.027Z,1.00
2024-03-26T13:30:13.747Z,1.20
2024-03-26T13:32:41.442Z,1.10
2024-03-26T13:35:10.603Z,1.00
2024-03-26T13:37:38.173Z,1.30
2024-03-26T13:40:09.526Z,1.10
2024-03-26T13:42:42.358Z,1.30
2024-03-26T13:45:10.932Z,1.00
2024-03-26T13:47:39.837Z,0.90
2024-03-26T13:50:08.193Z,1.10
2024-03-26T13:52:36.195Z,0.90
2024-03-26T13:55:05.694Z,0.70
2024-03-26T13:57:36.662Z,1.10
2024-03-26T14:00:11.934Z,1.00
2024-03-26T14:02:39.428Z,1.00
2024-03-26T14:05:09.497Z,1.10
2024-03-26T14:07:36.964Z,0.80
2024-03-26T14:10:06.637Z,1.30
2024-03-26T14:12:34.454Z,1.10
2024-03-26T14:15:02.016Z,1.10
2024-03-26T14:17:29.832Z,0.90
2024-03-26T14:19:57.392Z,1.20
2024-03-26T14:22:25.157Z,0.80
2024-03-26T14:24:53.099Z,0.90
2024-03-26T14:27:21.863Z,0.90
2024-03-26T14:29:49.712Z,1.10
2024-03-26T14:32:18.610Z,1.00
2024-03-26T14:34:46.196Z,1.00
2024-03-26T14:37:14.400Z,1.00
2024-03-26T14:39:41.920Z,0.70
2024-03-26T14:42:09.431Z,0.70
2024-03-26T14:44:38.012Z,1.00
2024-03-26T14:47:05.670Z,1.10
2024-03-26T14:49:33.328Z,1.00
2024-03-26T14:52:03.777Z,1.00
2024-03-26T14:54:40.753Z,1.30
2024-03-26T14:57:09.222Z,1.40
2024-03-26T14:59:37.595Z,0.90
2024-03-26T15:02:07.777Z,1.20
2024-03-26T15:04:36.955Z,1.20
2024-03-26T15:07:09.231Z,1.00
2024-03-26T15:09:36.961Z,1.00
2024-03-26T15:12:04.739Z,1.10
2024-03-26T15:14:32.233Z,1.10
2024-03-26T15:16:59.841Z,1.30
2024-03-26T15:19:27.364Z,1.00
2024-03-26T15:21:55.055Z,1.10
2024-03-26T15:24:23.099Z,1.40
2024-03-26T15:27:09.417Z,1.50
2024-03-26T15:29:58.391Z,1.00
2024-03-26T15:32:29.306Z,1.10
2024-03-26T15:34:57.101Z,1.00
2024-03-26T15:37:24.615Z,1.10
2024-03-26T15:39:52.522Z,1.00
2024-03-26T15:42:21.005Z,1.00
2024-03-26T15:44:48.583Z,1.30
2024-03-26T15:47:16.316Z,1.40
2024-03-26T15:49:47.881Z,1.10
2024-03-26T15:52:15.424Z,1.10
2024-03-26T15:54:43.074Z,1.20
2024-03-26T15:57:16.304Z,1.10
2024-03-26T15:59:45.030Z,1.30
2024-03-26T16:02:14.252Z,1.60
2024-03-26T16:05:54.864Z,1.30
2024-03-26T16:08:22.724Z,1.50
2024-03-26T16:11:12.308Z,1.30
2024-03-26T16:13:45.601Z,1.50
2024-03-26T16:16:13.823Z,1.90
2024-03-26T16:18:47.225Z,1.40
2024-03-26T16:21:16.685Z,1.70
2024-03-26T16:23:44.228Z,1.60
2024-03-26T16:26:15.245Z,1.60
2024-03-26T16:28:55.528Z,1.70
2024-03-26T16:31:27.533Z,1.90
2024-03-26T16:36:30.305Z,1.90
2024-03-26T16:39:04.209Z,2.20
2024-03-26T16:41:36.052Z,2.30
2024-03-26T16:44:03.929Z,2.10
2024-03-26T16:46:31.336Z,2.10
2024-03-26T16:48:59.247Z,2.50
2024-03-26T16:51:26.911Z,2.20
2024-03-26T16:53:54.827Z,2.20
2024-03-26T16:56:22.442Z,2.60
2024-03-26T16:58:49.928Z,1.70
2024-03-26T17:01:17.567Z,2.10
2024-03-26T17:03:46.144Z,2.20
2024-03-26T17:06:14.099Z,2.00
2024-03-26T17:08:41.725Z,2.40
2024-03-26T17:11:09.606Z,2.40
2024-03-26T17:13:40.422Z,2.50
2024-03-26T17:16:07.911Z,2.10
2024-03-26T17:18:36.167Z,2.30
2024-03-26T17:21:05.260Z,2.50
2024-03-26T17:23:32.766Z,0.70
2024-03-26T17:26:01.105Z,2.30
2024-03-26T17:28:29.543Z,2.10
2024-03-26T17:30:57.185Z,2.30
2024-03-26T17:33:26.740Z,2.50
2024-03-26T17:35:54.350Z,2.30
2024-03-26T17:38:21.812Z,2.20
2024-03-26T17:40:49.274Z,2.10
2024-03-26T17:43:16.735Z,2.00
2024-03-26T17:45:44.297Z,2.20
2024-03-26T17:48:11.859Z,2.10
2024-03-26T17:50:39.359Z,2.30
2024-03-26T17:53:07.337Z,1.80
2024-03-26T17:55:35.881Z,2.20
2024-03-26T17:58:03.524Z,2.90
2024-03-26T18:00:31.087Z,1.00
2024-03-26T18:02:58.550Z,2.20
2024-03-26T18:05:26.004Z,2.40
2024-03-26T18:07:53.564Z,2.80
2024-03-26T18:10:22.144Z,1.10
2024-03-26T18:12:50.113Z,3.50
2024-03-26T18:15:17.682Z,1.50
2024-03-26T18:17:46.465Z,3.30
2024-03-26T18:20:14.023Z,2.30
2024-03-26T18:22:41.386Z,3.60
2024-03-26T18:25:09.536Z,3.50
2024-03-26T18:27:38.234Z,2.90
2024-03-26T18:30:06.345Z,3.60
2024-03-26T18:32:33.867Z,3.80
2024-03-26T18:35:01.736Z,1.90
2024-03-26T18:37:29.320Z,4.00
2024-03-26T18:39:56.860Z,1.90
2024-03-26T18:42:24.414Z,3.90
2024-03-26T18:44:52.078Z,2.50
2024-03-26T18:47:19.487Z,4.00
2024-03-26T18:49:48.038Z,1.50
2024-03-26T18:52:15.482Z,4.50
2024-03-26T18:54:43.053Z,2.40
2024-03-26T18:57:14.134Z,4.10
2024-03-26T18:59:41.705Z,2.00
2024-03-26T19:02:09.246Z,4.10
2024-03-26T19:04:36.757Z,1.70
2024-03-26T19:07:06.258Z,1.90
2024-03-26T19:09:33.823Z,4.20
2024-03-26T19:12:01.284Z,2.50
2024-03-26T19:14:28.840Z,1.50
2024-03-26T19:16:56.441Z,2.50
2024-03-26T19:19:25.297Z,3.70
2024-03-26T19:21:52.851Z,1.90
2024-03-26T19:24:20.304Z,2.60
2024-03-26T19:26:48.709Z,5.00
2024-03-26T19:29:16.654Z,1.80
2024-03-26T19:31:44.212Z,2.30
2024-03-26T19:34:12.005Z,2.20
2024-03-26T19:36:39.398Z,4.90
2024-03-26T19:39:06.999Z,2.10
2024-03-26T19:41:34.455Z,2.30
2024-03-26T19:44:02.017Z,1.90
2024-03-26T19:46:29.716Z,1.80
2024-03-26T19:48:57.438Z,4.40
2024-03-26T19:51:25.357Z,2.10
2024-03-26T19:53:53.379Z,2.50
2024-03-26T19:56:20.943Z,4.40
2024-03-26T19:58:48.445Z,2.40
2024-03-26T20:01:16.981Z,2.40
2024-03-26T20:03:44.646Z,2.10
2024-03-26T20:06:13.143Z,2.20
2024-03-26T20:08:44.098Z,2.40
2024-03-26T20:11:12.448Z,5.10
2024-03-26T20:13:40.838Z,1.90
2024-03-26T20:16:08.293Z,1.70
2024-03-26T20:18:36.045Z,1.50
2024-03-26T20:21:03.710Z,3.20
2024-03-26T20:23:31.988Z,6.00
2024-03-26T20:26:04.103Z,2.20
2024-03-26T20:28:32.271Z,2.20
2024-03-26T20:31:12.029Z,2.30
2024-03-26T20:33:40.401Z,2.50
2024-03-26T20:36:08.630Z,4.30
2024-03-26T20:38:36.140Z,2.60
2024-03-26T20:41:05.288Z,2.00
2024-03-26T20:43:33.762Z,2.30
2024-03-26T20:46:07.571Z,3.60
2024-03-26T20:48:35.224Z,3.30
2024-03-26T20:51:09.603Z,3.20
2024-03-26T20:53:37.260Z,3.20
2024-03-26T20:56:11.318Z,6.80
2024-03-26T20:58:38.993Z,4.50
2024-03-26T21:01:06.647Z,3.90
2024-03-26T21:03:36.570Z,3.20
2024-03-26T21:06:04.843Z,3.20
2024-03-26T21:08:32.344Z,3.40
2024-03-26T21:11:00.881Z,3.60
2024-03-26T21:13:28.326Z,3.10
2024-03-26T21:16:02.766Z,3.30
2024-03-26T21:18:30.605Z,3.00
2024-03-26T21:20:58.362Z,3.50
2024-03-26T21:23:25.958Z,2.70
2024-03-26T21:25:53.510Z,1.90
2024-03-26T21:28:21.271Z,2.50
2024-03-26T21:30:58.708Z,2.40
2024-03-26T21:33:26.236Z,1.70
2024-03-26T21:35:55.024Z,2.40
2024-03-26T21:38:22.471Z,2.90
2024-03-26T21:40:59.822Z,4.10
2024-03-26T21:43:27.418Z,5.30
2024-03-26T21:45:54.878Z,2.60
2024-03-26T21:48:23.084Z,4.70
2024-03-26T21:51:00.136Z,2.80
2024-03-26T21:53:28.107Z,4.40
2024-03-26T21:56:16.679Z,4.90
2024-03-26T21:58:44.225Z,2.60
2024-03-26T22:01:12.184Z,4.20
2024-03-26T22:03:39.651Z,2.60
2024-03-26T22:06:14.316Z,2.90
2024-03-26T22:08:42.265Z,2.10
2024-03-26T22:11:12.466Z,2.50
2024-03-26T22:13:43.400Z,2.90
2024-03-26T22:16:10.965Z,2.30
2024-03-26T22:18:38.524Z,2.70
2024-03-26T22:21:06.023Z,3.60
2024-03-26T22:23:33.536Z,2.80
2024-03-26T22:26:08.208Z,3.00
2024-03-26T22:28:36.000Z,2.80
2024-03-26T22:31:04.005Z,2.30
2024-03-26T22:33:31.492Z,1.50
2024-03-26T22:35:59.065Z,1.70
2024-03-26T22:38:26.489Z,2.30
2024-03-26T22:40:58.026Z,2.10
2024-03-26T22:43:25.737Z,1.70
2024-03-26T22:46:00.002Z,2.20
2024-03-26T22:48:27.971Z,2.80
2024-03-26T22:50:55.718Z,2.80
2024-03-26T22:53:23.733Z,4.20
2024-03-26T22:56:05.333Z,3.20
2024-03-26T22:58:34.266Z,3.70
2024-03-26T23:01:05.791Z,5.10
2024-03-26T23:03:33.608Z,5.90
2024-03-26T23:06:01.950Z,4.50
2024-03-26T23:08:29.454Z,5.20
2024-03-26T23:10:57.010Z,5.00
2024-03-26T23:13:25.087Z,2.90
2024-03-26T23:15:52.560Z,4.10
2024-03-26T23:18:20.717Z,4.60
2024-03-26T23:20:48.273Z,4.20
2024-03-26T23:23:17.086Z,6.10
2024-03-26T23:25:44.838Z,3.90
2024-03-26T23:28:12.600Z,5.20
2024-03-26T23:30:40.969Z,4.60
2024-03-26T23:33:08.436Z,2.90
2024-03-26T23:35:36.092Z,2.50
2024-03-26T23:38:04.008Z,3.50
2024-03-26T23:40:31.520Z,3.10
2024-03-26T23:42:59.229Z,2.10
2024-03-26T23:45:29.451Z,2.40
2024-03-26T23:47:57.103Z,2.60
2024-03-26T23:50:25.137Z,3.50
2024-03-26T23:52:55.886Z,3.00
2024-03-26T23:55:27.810Z,2.90
2024-03-26T23:58:04.881Z,5.60
